秋田 の空港の天気 - METARとTAF

秋田空港 ( RJSK / AXT ) - 秋田県秋田市
飛行場実況気象(Metar)
観測時間01/20 21:00 JST (01/20 12:00 UTC)
風向・風速東 4m/s
視程10km以上
天気現象
少しの雲 雲底高度 300m
全天の4割程度の雲 雲底高度 1220m
全天の8割程度の雲 雲底高度 1830m
気温1℃
湿度80%
気圧1007hPa
METARRJSK 201200Z 10007KT 9999 FEW010 SCT040 BKN060 01/M02 Q1007
過去の天気等 Google飛行場航空写真 Wunderground天気予報

過去48時間のMETAR

飛行場予報(TAF)
発表時間: 1/21 02:09 JST (1/20 17:09 UTC)
予報対象時間: 21日3時 JST ~ 22日9時 JST
風向・風速北西 3m/s
視程10km以上
天気現象弱い雪
少しの雲 雲底高度 300m
全天の4割程度の雲 雲底高度 910m
全天の8割程度の雲 雲底高度 1,220m
21日3時 JST ~ 21日6時 JST に一時的に
視程3,000m
天気現象弱い雪
21日18時 JST ~ 21日21時 JST に徐々に
風向・風速南東 3m/s
21日21時 JST ~ 22日6時 JST に一時的に
視程1,500m
天気現象弱いしゅう雪
少しの雲 雲底高度 90m
全天の8割程度の雲 雲底高度 240m
全天の8割程度の雲 雲底高度 460m
TAF RJSK 201709Z 2018/2124 32005KT 9999 -SN FEW010 SCT030 BKN040
TEMPO 2018/2021 3000 -SN
BECMG 2109/2112 13005KT
TEMPO 2112/2121 1500 -SHSN FEW003 BKN008 BKN015
日本の空港のMETAR・TAFへのリンク

RJTT 東京国際空港
RJAA 新東京国際空港
RJBB 関西国際空港
RJOO 大阪空港
RJGG 中部国際空港
RJCC 新千歳空港
RJFF 福岡空港
ROAH 那覇空港


RJEC 旭川空港
RJCH 函館空港
RJCK 釧路空港
RJCM 女満別空港
RJCB 帯広空港
RJSA 青森空港
RJSS 仙台空港
RJSK 秋田空港
RJSF 福島空港
RJAH 茨城空港
RJSN 新潟空港
RJNT 富山空港
RJNK 小松飛行場
RJNS 静岡空港
RJOH 美保飛行場
RJOC 出雲空港
RJOB 岡山空港
RJOA 広島空港
RJOI 岩国飛行場
RJOT 高松空港
RJOM 松山空港
RJOK 高知空港
RJFR 北九州空港
RJFT 熊本空港
RJFU 長崎空港
RJFS 佐賀空港
RJFO 大分空港
RJFM 宮崎空港
RJFK 鹿児島空港
ROIG 石垣島空港
RJTY 横田飛行場
ROTM 普天間飛行場
RODN 嘉手納飛行場